createdAt,value
2023-04-24T00:02:20.513Z,9.90
2023-04-24T00:04:47.413Z,9.10
2023-04-24T00:07:14.278Z,8.80
2023-04-24T00:09:41.150Z,8.73
2023-04-24T00:12:08.811Z,8.93
2023-04-24T00:14:36.146Z,9.00
2023-04-24T00:17:03.562Z,10.60
2023-04-24T00:19:30.386Z,10.70
2023-04-24T00:21:57.087Z,14.37
2023-04-24T00:24:23.729Z,10.73
2023-04-24T00:26:50.375Z,8.33
2023-04-24T00:29:17.072Z,8.00
2023-04-24T00:31:43.832Z,8.80
2023-04-24T00:34:11.587Z,17.53
2023-04-24T00:36:38.276Z,22.50
2023-04-24T00:39:04.850Z,24.20
2023-04-24T00:41:32.389Z,24.10
2023-04-24T00:43:59.058Z,24.23
2023-04-24T00:46:25.719Z,26.03
2023-04-24T00:48:52.408Z,26.73
2023-04-24T00:51:19.067Z,26.23
2023-04-24T00:53:46.483Z,26.00
2023-04-24T00:56:13.231Z,26.10
2023-04-24T00:58:41.303Z,27.13
2023-04-24T01:01:08.459Z,27.80
2023-04-24T01:03:35.731Z,27.97
2023-04-24T01:06:02.734Z,27.37
2023-04-24T01:08:29.375Z,28.30
2023-04-24T01:10:57.837Z,27.83
2023-04-24T01:13:24.527Z,26.87
2023-04-24T01:15:51.249Z,27.47
2023-04-24T01:18:17.931Z,28.03
2023-04-24T01:20:46.210Z,27.00
2023-04-24T01:23:12.771Z,26.13
2023-04-24T01:25:40.397Z,27.87
2023-04-24T01:28:06.956Z,26.60
2023-04-24T01:30:33.608Z,25.30
2023-04-24T01:33:00.417Z,26.57
2023-04-24T01:35:27.142Z,26.07
2023-04-24T01:37:53.774Z,25.00
2023-04-24T01:40:22.806Z,26.03
2023-04-24T02:14:41.430Z,27.17
2023-04-24T02:17:10.812Z,27.10
2023-04-24T02:19:37.416Z,27.07
2023-04-24T02:22:04.034Z,30.20
2023-04-24T02:24:30.653Z,28.23
2023-04-24T02:26:57.460Z,28.47
2023-04-24T02:29:24.124Z,26.83
2023-04-24T02:31:50.787Z,27.07
2023-04-24T02:34:17.533Z,27.17
2023-04-24T02:36:44.210Z,25.90
2023-04-24T02:39:10.739Z,26.40
2023-04-24T02:41:39.586Z,28.37
2023-04-24T02:44:06.165Z,28.30
2023-04-24T02:46:32.919Z,28.13
2023-04-24T02:48:59.545Z,26.57
2023-04-24T02:51:27.051Z,26.17
2023-04-24T02:53:53.844Z,24.63
2023-04-24T02:56:20.725Z,26.07
2023-04-24T02:58:47.585Z,25.90
2023-04-24T03:01:14.237Z,26.13
2023-04-24T03:03:41.194Z,25.57
2023-04-24T03:06:09.121Z,25.10
2023-04-24T03:08:35.876Z,25.83
2023-04-24T03:11:02.454Z,24.30
2023-04-24T03:13:29.879Z,27.60
2023-04-24T03:15:56.599Z,28.37
2023-04-24T03:18:23.644Z,28.57
2023-04-24T03:20:52.509Z,28.10
2023-04-24T03:23:19.611Z,25.47
2023-04-24T03:25:49.496Z,24.37
2023-04-24T03:28:17.354Z,25.67
2023-04-24T03:30:48.991Z,23.30
2023-04-24T03:33:17.163Z,22.97
2023-04-24T03:35:54.117Z,22.13
2023-04-24T03:38:22.092Z,21.37
2023-04-24T03:41:11.499Z,20.90
2023-04-24T03:43:46.617Z,20.90
2023-04-24T03:46:13.360Z,23.40
2023-04-24T03:48:44.873Z,21.80
2023-04-24T03:51:12.023Z,22.00
2023-04-24T03:53:42.195Z,22.47
2023-04-24T03:56:10.560Z,21.10
2023-04-24T03:58:38.750Z,19.97
2023-04-24T04:01:08.767Z,20.40
2023-04-24T04:03:58.274Z,21.07
2023-04-24T04:06:28.022Z,20.50
2023-04-24T04:08:55.930Z,19.50
2023-04-24T04:11:22.568Z,18.60
2023-04-24T04:13:51.177Z,17.00
2023-04-24T04:16:21.144Z,17.97
2023-04-24T04:18:49.950Z,16.10
2023-04-24T04:21:17.768Z,16.30
2023-04-24T04:23:44.959Z,16.10
2023-04-24T04:26:20.349Z,16.30
2023-04-24T04:29:04.667Z,16.27
2023-04-24T04:31:33.194Z,17.17
2023-04-24T04:34:04.716Z,16.50
2023-04-24T04:36:33.825Z,16.27
2023-04-24T04:39:08.671Z,18.13
2023-04-24T04:42:01.609Z,17.83
2023-04-24T04:44:37.242Z,17.93
2023-04-24T04:47:06.615Z,17.37
2023-04-24T04:49:36.121Z,17.87
2023-04-24T04:52:04.808Z,17.97
2023-04-24T04:54:32.349Z,19.83
2023-04-24T04:56:59.087Z,19.40
2023-04-24T04:59:25.943Z,19.77
2023-04-24T05:01:59.589Z,17.90
2023-04-24T05:04:26.639Z,19.53
2023-04-24T05:06:53.531Z,19.60
2023-04-24T05:09:22.067Z,17.70
2023-04-24T05:11:53.294Z,18.20
2023-04-24T05:14:21.595Z,18.20
2023-04-24T05:16:49.885Z,18.47
2023-04-24T05:19:20.552Z,19.20
2023-04-24T05:21:47.431Z,18.97
2023-04-24T05:24:15.067Z,20.50
2023-04-24T05:26:52.994Z,21.93
2023-04-24T05:29:27.293Z,19.57
2023-04-24T05:31:54.474Z,19.70
2023-04-24T05:34:21.407Z,17.07
2023-04-24T05:36:52.885Z,17.23
2023-04-24T05:39:20.864Z,16.73
2023-04-24T05:41:48.032Z,16.40
2023-04-24T05:44:14.749Z,16.83
2023-04-24T05:46:42.476Z,16.13
2023-04-24T05:49:10.558Z,17.03
2023-04-24T05:51:37.283Z,16.17
2023-04-24T05:54:04.320Z,16.57
2023-04-24T05:56:31.787Z,16.47
2023-04-24T05:59:00.160Z,14.67
2023-04-24T06:01:27.081Z,14.83
2023-04-24T06:04:05.814Z,15.20
2023-04-24T06:06:33.895Z,15.57
2023-04-24T06:09:00.526Z,15.50
2023-04-24T06:11:31.270Z,14.10
2023-04-24T06:13:57.905Z,14.40
2023-04-24T06:16:49.552Z,15.27
2023-04-24T06:19:30.938Z,16.03
2023-04-24T06:21:57.552Z,15.10
2023-04-24T06:24:27.238Z,15.50
2023-04-24T06:26:54.037Z,16.30
2023-04-24T06:29:20.701Z,16.73
2023-04-24T06:31:47.413Z,16.30
2023-04-24T06:34:14.049Z,16.93
2023-04-24T06:36:41.516Z,16.90
2023-04-24T06:39:08.179Z,16.77
2023-04-24T06:41:34.844Z,18.07
2023-04-24T06:44:01.584Z,18.40
2023-04-24T06:46:29.020Z,16.07
2023-04-24T06:48:56.866Z,15.63
2023-04-24T06:51:26.853Z,16.47
2023-04-24T06:53:54.091Z,15.50
2023-04-24T06:56:21.392Z,16.67
2023-04-24T06:58:47.963Z,15.23
2023-04-24T07:01:14.702Z,16.10
2023-04-24T07:03:42.401Z,15.27
2023-04-24T07:06:09.224Z,16.13
2023-04-24T07:08:36.917Z,16.50
2023-04-24T07:11:03.617Z,16.40
2023-04-24T07:13:30.464Z,15.73
2023-04-24T07:15:57.401Z,16.17
2023-04-24T07:18:24.051Z,15.57
2023-04-24T07:20:53.301Z,15.70
2023-04-24T07:23:20.564Z,15.20
2023-04-24T07:25:47.926Z,14.80
2023-04-24T07:28:14.680Z,14.50
2023-04-24T07:30:41.377Z,14.40
2023-04-24T07:33:09.004Z,14.77
2023-04-24T07:35:36.530Z,14.07
2023-04-24T07:38:03.332Z,14.87
2023-04-24T07:40:30.131Z,15.07
2023-04-24T07:42:56.808Z,15.37
2023-04-24T07:45:24.909Z,15.57
2023-04-24T07:47:51.662Z,15.43
2023-04-24T07:50:18.330Z,15.23
2023-04-24T07:52:45.231Z,15.90
2023-04-24T07:55:36.635Z,16.03
2023-04-24T07:58:03.312Z,16.70
2023-04-24T08:00:29.923Z,16.23
2023-04-24T08:02:57.662Z,16.27
2023-04-24T08:05:26.744Z,14.67
2023-04-24T08:07:53.984Z,13.93
2023-04-24T08:10:20.589Z,15.20
2023-04-24T08:12:47.311Z,15.93
2023-04-24T08:15:13.991Z,16.70
2023-04-24T08:17:41.505Z,16.07
2023-04-24T08:20:14.373Z,14.63
2023-04-24T08:22:42.269Z,15.77
2023-04-24T08:25:10.766Z,15.30
2023-04-24T08:27:40.678Z,14.17
2023-04-24T08:30:07.956Z,13.57
2023-04-24T08:32:35.020Z,13.47
2023-04-24T08:35:01.715Z,15.00
2023-04-24T08:37:29.621Z,15.83
2023-04-24T08:39:57.192Z,17.33
2023-04-24T08:42:23.879Z,16.30
2023-04-24T08:44:50.911Z,15.17
2023-04-24T08:47:17.765Z,16.73
2023-04-24T08:49:44.621Z,16.67
2023-04-24T08:52:14.118Z,17.97
2023-04-24T08:54:41.079Z,17.27
2023-04-24T08:57:07.723Z,18.17
2023-04-24T08:59:34.598Z,19.37
2023-04-24T09:02:01.351Z,19.53
2023-04-24T09:04:28.559Z,18.73
2023-04-24T09:06:58.566Z,20.63
2023-04-24T09:09:25.744Z,19.10
2023-04-24T09:11:54.662Z,18.73
2023-04-24T09:14:22.250Z,17.60
2023-04-24T09:16:49.045Z,17.47
2023-04-24T09:19:15.847Z,17.27
2023-04-24T09:21:45.801Z,17.50
2023-04-24T09:24:19.339Z,17.40
2023-04-24T09:26:46.097Z,17.37
2023-04-24T09:29:19.051Z,17.77
2023-04-24T09:31:46.187Z,16.93
2023-04-24T09:34:12.812Z,16.83
2023-04-24T09:36:40.404Z,17.17
2023-04-24T09:39:10.058Z,17.00
2023-04-24T09:41:36.738Z,16.43
2023-04-24T09:44:13.978Z,16.17
2023-04-24T09:46:40.825Z,17.57
2023-04-24T09:49:12.082Z,15.23
2023-04-24T09:51:39.417Z,14.10
2023-04-24T09:54:06.261Z,13.77
2023-04-24T09:56:36.071Z,14.77
2023-04-24T09:59:06.394Z,15.30
2023-04-24T10:01:33.308Z,14.07
2023-04-24T10:04:00.181Z,14.37
2023-04-24T10:06:36.621Z,14.67
2023-04-24T10:09:03.254Z,13.97
2023-04-24T10:11:29.908Z,13.10
2023-04-24T10:13:58.406Z,13.03
2023-04-24T10:16:25.312Z,12.93
2023-04-24T10:18:52.406Z,13.33
2023-04-24T10:21:19.063Z,13.10
2023-04-24T10:23:47.700Z,13.43
2023-04-24T10:26:18.706Z,12.57
2023-04-24T10:28:46.250Z,12.13
2023-04-24T10:31:12.920Z,12.20
2023-04-24T10:33:41.872Z,12.53
2023-04-24T10:36:08.796Z,12.93
2023-04-24T10:38:36.215Z,13.20
2023-04-24T10:41:18.006Z,13.00
2023-04-24T10:43:44.979Z,12.70
2023-04-24T10:46:11.808Z,12.07
2023-04-24T10:48:43.004Z,11.57
2023-04-24T10:51:12.139Z,11.47
2023-04-24T10:53:40.078Z,11.20
2023-04-24T10:56:07.653Z,11.50
2023-04-24T10:58:53.381Z,13.00
2023-04-24T11:01:29.699Z,12.50
2023-04-24T11:03:57.679Z,12.77
2023-04-24T11:06:34.552Z,12.53
2023-04-24T11:09:06.480Z,12.90
2023-04-24T11:11:33.306Z,12.97
2023-04-24T11:14:00.004Z,13.53
2023-04-24T11:16:30.253Z,12.07
2023-04-24T11:19:04.117Z,12.27
2023-04-24T11:21:40.100Z,11.50
2023-04-24T11:24:26.463Z,11.37
2023-04-24T11:26:54.603Z,10.20
2023-04-24T11:29:22.513Z,10.93
2023-04-24T11:31:51.028Z,10.93
2023-04-24T11:34:17.889Z,12.00
2023-04-24T11:36:44.974Z,12.17
2023-04-24T11:39:12.327Z,11.37
2023-04-24T11:41:38.999Z,11.33
2023-04-24T11:44:06.957Z,11.07
2023-04-24T11:46:34.083Z,10.40
2023-04-24T11:49:01.280Z,10.60
2023-04-24T11:51:31.285Z,9.80
2023-04-24T11:54:04.272Z,10.20
2023-04-24T11:56:31.313Z,9.80
2023-04-24T11:58:58.038Z,8.63
2023-04-24T12:01:25.291Z,9.40
2023-04-24T12:03:52.583Z,7.60
2023-04-24T12:06:20.382Z,5.47
2023-04-24T12:08:47.912Z,5.00
2023-04-24T12:11:15.984Z,4.93
2023-04-24T12:13:42.596Z,5.63
2023-04-24T12:16:09.265Z,4.47
2023-04-24T12:18:36.041Z,4.67
2023-04-24T12:21:23.086Z,4.87
2023-04-24T12:23:51.925Z,4.20
2023-04-24T12:26:22.277Z,4.47
2023-04-24T12:28:52.848Z,4.27
2023-04-24T12:31:19.997Z,4.40
2023-04-24T12:33:46.822Z,4.23
2023-04-24T12:36:13.646Z,4.20
2023-04-24T12:38:45.458Z,4.80
2023-04-24T12:41:13.024Z,4.90
2023-04-24T12:43:39.779Z,4.63
2023-04-24T12:46:06.805Z,5.00
2023-04-24T12:48:33.643Z,4.10
2023-04-24T12:51:02.547Z,3.97
2023-04-24T12:53:30.591Z,3.93
2023-04-24T12:55:58.238Z,3.70
2023-04-24T12:58:24.827Z,3.70
2023-04-24T13:00:51.539Z,3.17
2023-04-24T13:03:18.319Z,3.67
2023-04-24T13:05:45.204Z,3.40
2023-04-24T13:08:11.974Z,3.70
2023-04-24T13:10:44.113Z,3.60
2023-04-24T13:13:10.757Z,4.03
2023-04-24T13:15:37.417Z,3.63
2023-04-24T13:18:05.280Z,3.50
2023-04-24T13:20:31.956Z,4.13
2023-04-24T13:22:58.611Z,3.80
2023-04-24T13:25:27.238Z,3.80
2023-04-24T13:27:53.927Z,3.33
2023-04-24T13:30:20.847Z,3.43
2023-04-24T13:32:47.588Z,3.50
2023-04-24T13:35:14.252Z,3.73
2023-04-24T13:37:41.039Z,3.30
2023-04-24T13:40:08.236Z,3.20
2023-04-24T13:42:35.175Z,3.50
2023-04-24T13:45:06.031Z,3.70
2023-04-24T13:47:42.295Z,3.43
2023-04-24T13:50:09.997Z,2.97
2023-04-24T13:52:36.826Z,3.40
2023-04-24T13:55:03.604Z,2.93
2023-04-24T13:57:32.098Z,3.40
2023-04-24T14:00:02.296Z,3.47
2023-04-24T14:02:33.982Z,3.13
2023-04-24T14:05:00.943Z,3.00
2023-04-24T14:07:27.669Z,3.10
2023-04-24T14:09:54.291Z,3.20
2023-04-24T14:12:21.293Z,3.57
2023-04-24T14:14:49.462Z,3.60
2023-04-24T14:17:16.251Z,4.57
2023-04-24T14:19:42.992Z,3.83
2023-04-24T14:22:10.855Z,3.60
2023-04-24T14:24:37.516Z,3.53
2023-04-24T14:27:04.214Z,4.13
2023-04-24T14:29:31.490Z,3.70
2023-04-24T14:31:58.739Z,4.10
2023-04-24T14:34:25.435Z,3.93
2023-04-24T14:36:53.470Z,3.83
2023-04-24T14:39:20.236Z,3.90
2023-04-24T14:41:49.922Z,3.97
2023-04-24T14:44:16.702Z,4.13
2023-04-24T14:46:43.883Z,4.50
2023-04-24T14:49:10.863Z,3.80
2023-04-24T14:51:37.757Z,4.20
2023-04-24T14:54:04.530Z,4.07
2023-04-24T14:56:31.172Z,4.57
2023-04-24T14:58:57.868Z,4.70
2023-04-24T15:01:25.349Z,4.97
2023-04-24T15:03:52.618Z,5.60
2023-04-24T15:06:19.881Z,4.77
2023-04-24T15:08:50.004Z,5.17
2023-04-24T15:11:19.643Z,4.83
2023-04-24T15:13:46.744Z,6.27
2023-04-24T15:16:14.299Z,5.60
2023-04-24T15:18:41.182Z,3.60
2023-04-24T15:21:08.079Z,3.70
2023-04-24T15:23:36.363Z,3.60
2023-04-24T15:26:03.442Z,4.17
2023-04-24T15:28:30.107Z,4.40
2023-04-24T15:30:58.072Z,4.43
2023-04-24T15:33:25.025Z,5.07
2023-04-24T15:35:56.342Z,5.47
2023-04-24T15:38:24.472Z,6.17
2023-04-24T15:40:51.238Z,6.50
2023-04-24T15:43:18.243Z,6.80
2023-04-24T15:45:45.387Z,6.63
2023-04-24T15:48:15.671Z,7.60
2023-04-24T15:50:42.659Z,7.57
2023-04-24T15:53:13.730Z,7.83
2023-04-24T15:55:40.562Z,8.07
2023-04-24T15:58:08.133Z,10.80
2023-04-24T16:00:37.025Z,14.20
2023-04-24T16:03:04.018Z,9.83
2023-04-24T16:05:32.058Z,6.83
2023-04-24T16:07:58.767Z,6.90
2023-04-24T16:10:25.679Z,6.67
2023-04-24T16:12:53.572Z,6.43
2023-04-24T16:15:20.819Z,5.50
2023-04-24T16:17:47.663Z,5.33
2023-04-24T16:20:15.382Z,4.87
2023-04-24T16:22:42.614Z,4.30
2023-04-24T16:25:09.657Z,4.33
2023-04-24T16:27:36.652Z,4.20
2023-04-24T16:30:04.592Z,4.10
2023-04-24T16:32:31.314Z,4.27
2023-04-24T16:35:00.400Z,4.17
2023-04-24T16:37:26.998Z,3.83
2023-04-24T16:39:56.297Z,4.13
2023-04-24T16:42:24.501Z,3.60
2023-04-24T16:44:53.460Z,3.20
2023-04-24T16:47:20.487Z,3.13
2023-04-24T16:49:47.310Z,3.03
2023-04-24T16:52:15.722Z,2.70
2023-04-24T16:54:42.506Z,2.70
2023-04-24T16:57:10.447Z,2.00
2023-04-24T16:59:38.252Z,2.10
2023-04-24T17:02:04.880Z,2.20
2023-04-24T17:04:35.537Z,2.10
2023-04-24T17:07:02.557Z,1.90
2023-04-24T17:09:29.461Z,1.80
2023-04-24T17:11:56.806Z,1.83
2023-04-24T17:14:24.163Z,1.90
2023-04-24T17:16:50.991Z,2.00
2023-04-24T17:19:19.585Z,2.13
2023-04-24T17:21:46.532Z,2.30
2023-04-24T17:24:13.634Z,2.50
2023-04-24T17:26:40.480Z,2.50
2023-04-24T17:29:07.436Z,2.50
2023-04-24T17:31:34.140Z,2.90
2023-04-24T17:34:01.057Z,3.10
2023-04-24T17:36:27.874Z,2.70
2023-04-24T17:38:54.754Z,3.00
2023-04-24T17:41:22.560Z,3.20
2023-04-24T17:43:49.281Z,3.03
2023-04-24T17:46:16.208Z,3.30
2023-04-24T17:48:43.027Z,3.43
2023-04-24T17:51:09.726Z,3.33
2023-04-24T17:53:36.547Z,3.47
2023-04-24T17:56:04.165Z,3.40
2023-04-24T17:58:31.382Z,3.40
2023-04-24T18:00:59.428Z,2.80
2023-04-24T18:03:27.164Z,3.07
2023-04-24T18:05:54.920Z,3.03
2023-04-24T18:08:21.559Z,3.40
2023-04-24T18:10:52.336Z,2.80
2023-04-24T18:13:19.248Z,3.97
2023-04-24T18:15:46.175Z,3.53
2023-04-24T18:18:15.198Z,3.60
2023-04-24T18:20:41.927Z,3.47
2023-04-24T18:23:10.180Z,3.60
2023-04-24T18:25:36.799Z,4.00
2023-04-24T18:28:04.736Z,4.07
2023-04-24T18:30:32.566Z,4.20
2023-04-24T18:33:01.379Z,5.87
2023-04-24T18:35:29.442Z,5.53
2023-04-24T18:37:56.412Z,5.20
2023-04-24T18:40:28.738Z,4.70
2023-04-24T18:42:58.868Z,5.13
2023-04-24T18:45:26.352Z,5.40
2023-04-24T18:47:53.311Z,5.10
2023-04-24T18:50:20.289Z,6.03
2023-04-24T18:52:47.018Z,4.60
2023-04-24T18:55:16.056Z,4.80
2023-04-24T18:57:42.653Z,4.00
2023-04-24T19:00:09.500Z,3.97
2023-04-24T19:02:41.506Z,3.80
2023-04-24T19:05:10.578Z,3.30
2023-04-24T19:07:37.562Z,3.40
2023-04-24T19:10:05.838Z,3.20
2023-04-24T19:12:32.521Z,2.90
2023-04-24T19:15:00.969Z,3.23
2023-04-24T19:17:27.999Z,3.10
2023-04-24T19:19:55.681Z,3.97
2023-04-24T19:22:22.581Z,4.60
2023-04-24T19:24:49.366Z,5.20
2023-04-24T19:27:16.137Z,6.00
2023-04-24T19:29:43.032Z,5.67
2023-04-24T19:32:10.026Z,5.20
2023-04-24T19:34:40.276Z,5.63
2023-04-24T19:37:09.839Z,5.90
2023-04-24T19:39:40.241Z,6.77
2023-04-24T19:42:08.005Z,6.03
2023-04-24T19:44:35.519Z,4.47
2023-04-24T19:47:02.221Z,3.67
2023-04-24T19:49:31.702Z,2.90
2023-04-24T19:51:58.410Z,3.00
2023-04-24T19:54:27.989Z,2.93
2023-04-24T19:56:55.063Z,2.63
2023-04-24T19:59:22.946Z,2.90
2023-04-24T20:01:51.780Z,2.70
2023-04-24T20:04:22.259Z,1.90
2023-04-24T20:06:50.699Z,2.63
2023-04-24T20:09:17.506Z,2.47
2023-04-24T20:11:46.967Z,2.40
2023-04-24T20:14:14.492Z,1.80
2023-04-24T20:16:41.711Z,2.23
2023-04-24T20:19:09.576Z,1.90
2023-04-24T20:21:36.567Z,2.40
2023-04-24T20:24:04.495Z,2.40
2023-04-24T20:26:31.452Z,2.37
2023-04-24T20:28:58.164Z,2.60
2023-04-24T20:31:24.973Z,2.80
2023-04-24T20:33:51.707Z,2.53
2023-04-24T20:36:19.333Z,2.40
2023-04-24T20:38:47.388Z,3.10
2023-04-24T20:41:16.171Z,2.87
2023-04-24T20:43:42.902Z,2.80
2023-04-24T20:46:11.111Z,2.67
2023-04-24T20:48:38.007Z,2.90
2023-04-24T20:51:04.785Z,2.77
2023-04-24T20:53:32.987Z,3.10
2023-04-24T20:55:59.666Z,3.00
2023-04-24T20:58:26.439Z,3.30
2023-04-24T21:00:53.540Z,3.30
2023-04-24T21:03:20.529Z,3.00
2023-04-24T21:05:47.875Z,3.63
2023-04-24T21:08:16.549Z,3.10
2023-04-24T21:10:43.246Z,3.33
2023-04-24T21:13:09.936Z,3.23
2023-04-24T21:15:37.978Z,3.17
2023-04-24T21:18:04.817Z,3.03
2023-04-24T21:20:31.899Z,3.27
2023-04-24T21:22:58.467Z,3.90
2023-04-24T21:25:25.143Z,3.77
2023-04-24T21:27:51.767Z,3.53
2023-04-24T21:30:19.028Z,4.10
2023-04-24T21:32:45.726Z,3.97
2023-04-24T21:35:12.451Z,3.97
2023-04-24T21:37:39.928Z,4.40
2023-04-24T21:40:07.458Z,4.60
2023-04-24T21:42:34.142Z,4.97
2023-04-24T21:45:00.783Z,4.90
2023-04-24T21:47:27.404Z,4.53
2023-04-24T21:49:54.085Z,4.43
2023-04-24T21:52:20.804Z,4.70
2023-04-24T21:54:47.430Z,4.60
2023-04-24T21:57:14.106Z,4.70
2023-04-24T21:59:40.867Z,4.57
2023-04-24T22:02:10.835Z,4.73
2023-04-24T22:04:41.426Z,4.50
2023-04-24T22:07:08.017Z,4.50
2023-04-24T22:09:34.651Z,4.80
2023-04-24T22:12:01.758Z,4.63
2023-04-24T22:14:29.151Z,4.70
2023-04-24T22:16:57.217Z,4.73
2023-04-24T22:19:26.409Z,4.70
2023-04-24T22:21:53.065Z,4.30
2023-04-24T22:24:20.096Z,3.83
2023-04-24T22:26:50.104Z,4.20
2023-04-24T22:29:16.986Z,3.93
2023-04-24T22:31:43.628Z,4.17
2023-04-24T22:34:10.744Z,3.90
2023-04-24T22:36:37.314Z,3.83
2023-04-24T22:39:05.178Z,3.80
2023-04-24T22:41:31.888Z,3.63
2023-04-24T22:43:58.537Z,4.00
2023-04-24T22:46:25.165Z,4.07
2023-04-24T22:48:52.681Z,4.10
2023-04-24T22:51:19.266Z,4.40
2023-04-24T22:53:46.252Z,4.07
2023-04-24T22:56:13.206Z,3.93
2023-04-24T22:58:39.834Z,4.23
2023-04-24T23:01:06.554Z,4.23
2023-04-24T23:03:35.831Z,4.30
2023-04-24T23:06:02.537Z,4.60
2023-04-24T23:08:30.706Z,3.60
2023-04-24T23:10:57.594Z,3.83
2023-04-24T23:13:24.292Z,4.17
2023-04-24T23:15:51.983Z,3.90
2023-04-24T23:18:20.658Z,4.77
2023-04-24T23:20:47.246Z,3.80
2023-04-24T23:23:14.090Z,3.80
2023-04-24T23:25:40.843Z,4.10
2023-04-24T23:28:07.414Z,4.10
2023-04-24T23:30:34.342Z,4.10
2023-04-24T23:33:01.216Z,3.80
2023-04-24T23:35:28.080Z,3.93
2023-04-24T23:37:56.763Z,4.07
2023-04-24T23:40:24.257Z,4.27
2023-04-24T23:43:03.399Z,4.30
2023-04-24T23:45:34.785Z,4.20
2023-04-24T23:48:01.522Z,4.43
2023-04-24T23:50:28.303Z,4.50
2023-04-24T23:52:55.878Z,4.23
2023-04-24T23:55:22.457Z,4.37
2023-04-24T23:57:49.028Z,4.60
